Top 250   5 MHz   UTC   Spotter   Comment  
DJ5AA/P   5354.0   25 May 12:51   DL6AP   WCA DL-01109
VA2QA   5357.0   25 May 02:52   DL9NEI   ft8 -8
N7DC   5357.0   25 May 02:24   DL9NEI   ft8 -14
LU7YS   5351.5   24 May 22:09   LU8YE   CQ DX
EW8W   5358.5   24 May 18:59   OH1LWZ   FT8
HB9JAB   5358.5   24 May 18:18   OH1LWZ   FT8
T77C   5366.0   24 May 18:12   T77C   cq SSB
T77C   5351.9   24 May 17:59   DK3WJ  
T77C   5351.9   24 May 17:54   SP8SN   tnx qso
T77C   5352.0   24 May 17:45   T77C   CQ CALL
N4EX/P   5348.0   24 May 15:43   N4EX   POTA KFF-4515 (NC)
DK1DU   5353.8   24 May 12:04   DL6SRD   cq vy gud sigs
K1BZ   5357.0   24 May 01:44   DL9NEI   tu ft8 qso
AE2DX   5357.0   24 May 01:24   DL9NEI   cq jt65 -4
OY8W   5359.9   23 May 23:31   NP2Q  
K2TL   5359.9   23 May 23:10   NP2Q  
LA6VQ   5359.9   23 May 23:04   NP2Q  
LA3VEA   5359.9   23 May 22:59   NP2Q  
OZ1AXG   5359.9   23 May 22:51   NP2Q  
OZ1BGQ   5359.9   23 May 22:45   NP2Q  
5P8ICE   5359.9   23 May 22:44   NP2Q  
OT/70AST   5357.0   23 May 20:06   DL4MFF   tnx FT8
4X4DK   5357.0   23 May 19:52   DL4MFF   tnx FT8
OH0Y   5357.0   23 May 19:19   IK4RTY   CQ FT8
OT70LVN   5353.0   23 May 18:31   ON4VT  
N4EX/P   5348.0   23 May 15:41   N4EX   POTA KFF-4515 (NC)
DL0CANDY   5353.0   23 May 13:32   PE2HHN   CW 599 special event call sign
G0UOO   5398.0   23 May 11:39   PE2HHN   Rob 5/8 in jo32ke
GB80FOC   5354.0   23 May 07:33   G4PVM   CQ S9
K9HJZ   5357.0   23 May 03:49   DL9NEI   ft8 -6
SP5ENA   5357.0   23 May 02:50   K2UU   FT8 KO02
VA2QA   5357.0   23 May 01:21   EA3IAA   FT8 CQ
LU7YS   5351.5   22 May 22:13   OG1X   Hr again
LU7YS   5351.5   22 May 22:13   DJ9ZB  
SP5ES   5354.0   22 May 17:35   SP5PBE   PGA GV05
PI40FL   5353.0   22 May 15:38   PA0RHA   CW
VA2QA   5357.0   22 May 03:41   DL9NEI   ft8 tu qso
N4WLO   5357.0   22 May 03:40   DL9NEI   ft8 tu qso
KG4W   5357.0   21 May 22:48   SP5ENA   -8
STANAG   5400.0   21 May 21:23   PA0O   MHz space
STANAG   5362.0   21 May 21:21   PA0O   9+50 why in the WRC15????
OZ1DGQ   5358.2   21 May 20:18   PC4N   FT8
CT1EKU   5357.4   21 May 20:16   4X1UF   Tnx qso
SP9RHN   5357.4   21 May 20:03   4X1UF   Tnx qso
5P9R   5357.4   21 May 19:57   4X1UF   Tnx qso
OZ7IO   5357.4   21 May 19:55   4X1UF   Tnx qso
SP9HZW   5357.4   21 May 19:52   4X1UF   Tnx qso
GI0HWO   5357.4   21 May 19:50   4X1UF   Tnx qso
TA9J   5357.4   21 May 19:47   4X1UF   Tnx qso
DK1XAM   5357.4   21 May 19:41   4X1UF   Tnx qso
ON4GPE   5357.4   21 May 19:36   4X1UF   Tnx qso
G0JEI   5357.4   21 May 19:35   4X1UF   Tnx qso
SP5GH   5353.0   21 May 17:05   DK1IS   fb QRP 2W - tu Tom!
OT4V/P   5353.0   21 May 10:19   ON4VT   onff-0725 wca on-02632
DK0MV   5355.0   21 May 05:06   DL9NEI  
VE9DX   5357.0   21 May 03:35   SP7JLH  
VA2SW   5332.0   20 May 23:08   VE2WFF   Pota
LU7YS   5351.5   20 May 22:52   OH2BGD   cq
LU7YS   5359.0   20 May 22:43   OG1X   CQing USB
N9AGC   5357.0   20 May 22:36   CX9AU   CQ JT65
LU7YS   5351.5   20 May 22:34   LU2DPW   TKS SERGIO POR CW QSO
LU7YS   5351.5   20 May 22:13   OG1X   CQing
GR4BUE   5354.1   20 May 22:11   OK1VK   CQ CQ NO TAKERS
GR4BUE   5354.0   20 May 22:10   OG1X  
GR4BUE   5354.1   20 May 22:07   OK1VK   CQ 599 in OK - SPECIAL CALL
C31LK   5355.0   20 May 21:38   DL2HWA   cq ssb
C31LK   5355.0   20 May 21:30   ON4ZD  
C31LK   5355.0   20 May 21:26   SP5GRM  
ES0NW   5354.0   20 May 20:26   DL5RDI  
OK1VK   5351.9   20 May 20:04   DL9NEI  
DL7VPE/P   5352.9   20 May 14:48   OH2BGD   Peter nr Berlin
DL7VPE/P   5352.8   20 May 09:50   DL9NEI  
SP5ES   5354.0   20 May 06:42   SP0WFF   cq spff-959
DH6LAS   5354.0   20 May 01:55   TF6EI   cq cq cq 60 USB
ES0NW   5352.5   19 May 21:44   DF3OL   73 de Jurgen
C31LK   5355.5   19 May 21:26   ON4WIX   Andorra
HB9DAX   5353.0   19 May 21:25   SP9MQA   73
C31LK   5355.5   19 May 21:07   SP9QMP  
C31LK   5355.5   19 May 20:50   OK1OGS   CQ SSB
OK2ER   5354.1   19 May 20:46   OK1OGS   CQ CW
IK2WRT   5357.0   19 May 19:54   T77C   PIRATE SPOT NOSPOT
OZ18ICE   5353.6   19 May 19:20   OK1VK   CQ CQ SPECIAL CALL
PA0LCE   5354.3   19 May 19:11   OH2BGD   qrp
OZ1AAR   5310.0   19 May 19:07   OZ18ICE   wm icehockey event
DQ800HRO   5354.0   19 May 18:27   DL5KVV  
T77C   5357.0   19 May 17:51   IK2WRT   CQ FT8
OZ1RDP   5359.0   19 May 15:49   SP7IIT   FT8
LX/DD5ZZ   5357.0   18 May 22:48   MI0OBC   ft8 cq cq
OZ1RDP   5357.0   18 May 22:31   M0LHS   tu
G8CPZ/P   5354.5   18 May 12:26   G4PVM   CQ SOTA
OZ1HFG   5357.6   18 May 10:07   PC4N   FT8
XE2YWB   5357.0   18 May 02:17   KD5J   FT8
UK9AA   5357.0   17 May 19:11   DL4MFF   tnx FT8
OZ9ABS   5353.0   17 May 06:40   DL6SRD   cq vy gud sigs
K6RP   5357.9   17 May 04:33   W0JMP   FT8
OZ1W   5357.1   17 May 04:11   W1UU  
K1MZM   5405.0   17 May 00:57   LB6BG   tnx qso, Alan
LB6BG   5405.0   16 May 23:11   9A6W   CW
HB9CVQ   5353.0   16 May 22:57   EA7IZ   fb tnx Andy
GB80FOC   5354.0   16 May 22:24   HB9CVQ   James 599 on DP here
ES0NW   5352.6   16 May 21:26   OK1VK   CQ CQ 579 in OK op.IVO
GB80FOC   5354.0   16 May 21:21   CT1ELP  
SM3EVR   5352.0   16 May 20:40   DK1WI  
GB80FOC   5354.1   16 May 20:30   DL6KVA   op G4ILW
DM80FOC   5354.6   16 May 18:49   DL0MOL  
GB8FOC   5354.0   16 May 16:27   G4PVM   TNX FB QSO James
DK1XAM   5358.4   16 May 09:47   PA1APW   ft8
DF4JH   5358.3   16 May 09:23   PA1APW   FT8
OT4V/P   5353.0   16 May 07:54   ON4VT  
OT4V/P   5359.0   16 May 07:50   G4PVM   ONFF
OT4V/P   5359.0   16 May 07:47   ON4VT  
GB80FOC   5354.7   16 May 05:57   SP5ENA   James
N8NM   5357.0   16 May 02:30   DL9NEI   ft8 -14
LU7YS   5351.5   15 May 21:41   LU8YE   CQ DX
LA8IG   5355.0   15 May 21:01   F4CXO   JN26PP<>JP41MA HRD 579 QSB
GS3PYE/P   5371.5   15 May 20:08   G7MFR   Thanks for the activation
GS3PYE/P   5371.5   15 May 19:50   GW2HFR   CQCQ
T77C   5365.0   15 May 19:39   SP6CES   tnx Tony
DM80FOC   5354.4   15 May 19:38   DL4FO   cq cq
SM3NRY   5365.0   15 May 19:36   T77C   ON SSB
T77C   5352.0   15 May 19:16   9A3SM   cq cq
T77C   5352.0   15 May 19:14   DK8YY   Tony .. CQing
T77C   5352.0   15 May 19:01   T77C   now cw
T77C   5352.0   15 May 19:00   PA9M   tnx
9A3SM   5356.0   15 May 18:32   DF7DR   cq
DM80FOC   5353.0   15 May 18:25   ES8AS   TNX QSO 73!
T77C   5357.0   15 May 18:20   DF6PW   Tony FT-8
T77C   5357.0   15 May 18:17   DL4MFF   tnx FT8
T77C   5357.0   15 May 17:38   T77C   60mFT8
DJ9MH   5354.5   15 May 17:16   G4PVM   TNX FB QSO.
G4BUE   5354.0   15 May 08:08   G4PVM   FOC 80
G4BUE   5354.0   15 May 06:17   OK4RQ   only SWL
ZL2CC   5363.0   15 May 05:03   WP3UX   split I know but dont see you
ZL2CC   5357.1   15 May 05:00   WP3UX   split I know but dont see you
WP3UX   5363.0   15 May 04:46   ZL2CC   my tx 5363 10w
ZL2CC   5363.0   15 May 04:40   LZ1FG   SORY I NOTSEEUR
LZ1FG   5363.0   15 May 04:34   ZL2CC   my tx 5363
ZL2CC   5363.0   15 May 04:20   ZL2CC   FT8 tx 5363 rx5357
DJ9MH   5357.1   15 May 01:55   W1UU  
EW2R   5357.1   15 May 01:43   W1UU  
EW2R   5357.0   15 May 00:22   EA5MT   IM88WV<>KO34 FT8 -09
OX3LX   5357.0   14 May 21:52   DF6PW   FT8
SA7CND   5357.0   14 May 21:49   M0LHS   tu
OZ1AAR   5350.0   14 May 21:29   OZ18ICE   icehockey award
EW2R   5357.0   14 May 21:24   DL4MFF   tnx FT8
OK1MP   5357.0   14 May 21:19   DL4MFF   tnx FT8
EW2R   5357.0   14 May 21:07   OH5O   tnx
4Z4DX   5352.1   14 May 20:04   LZ2GS  
DM80FOC   5353.0   14 May 19:45   EA2CW  
DM80FOC   5353.0   14 May 19:40   DL2YBG   tks dr Tina
YR80FOC   5353.0   14 May 19:33   EA2CW  
DM80FOC   5353.0   14 May 19:28   DL5YM  
KD3KO   5405.0   14 May 01:17   YL2GP   cq cq but no qsx for EU 5352...
DP80FOC   5355.0   13 May 20:07   OK4RQ   vy strong
DP80FOC   5355.0   13 May 19:50   G4GIR  
T77C   5357.0   13 May 19:24   OK2WOR   CQ FT8
PI40FL   5355.0   13 May 18:36   PA3HEB   cq cq special call
OZ1HX   5357.0   13 May 18:15   DL4MFF   tnx FT8
DM5CS   5358.0   13 May 18:09   PC4N   FT8
DM5CS   5357.0   13 May 18:08   DL4MFF   tnx FT8
DL1ASA/P   5352.0   13 May 18:01   DL4FO   DLFF-0045 SOTA
DL1AE/P   5351.5   13 May 17:56   SQ1KUK  
GS3PYE/P   5398.5   13 May 13:56   G4LNA   From the Isle of Ilay, tnx fer QSO
LU9VS   5360.0   13 May 12:13   LU9VS   cqcq
NIIW   5371.5   13 May 03:27   W6RDF   ArmedForcesDay San Diego CA LSB
C8T   5357.0   13 May 02:55   OZ1AXG   FT8 Fox DxExpd Mode
C8T   5357.0   13 May 02:36   C91CCV   FT8 Dxped mode fox
C8T   5357.0   13 May 00:27   CT1EEB   FB signal but no RX
C8T   5357.0   13 May 00:23   ON6SX   FT8
WAR   5375.0   13 May 00:15   K1HTV   USB - Pentagon
C8T   5357.0   12 May 23:40   N4CC   FT8
C8T   5357.0   12 May 23:03   C91ABG   FT8 DXped mode
DF6PW   5357.0   12 May 22:58   CX9AU   tnx new contact ft8
HB9AMO   5357.0   12 May 22:57   CX9AU   ft8 tnx
NSS   5332.0   12 May 22:23   KD4D   cw!
WAR   5357.0   12 May 22:12   KE4SCJ  
NSS   5330.5   12 May 21:54   KD4D  
NSS   5330.5   12 May 21:35   WA2FON   Armed Foces Day MARS
NSS   5330.5   12 May 21:06   W1OP  
M0JBM   5357.0   12 May 20:42   DL4MFF   tnx FT8
EW8W   5357.0   12 May 20:39   DL4MFF   tnx FT8
OY1R/MM   5400.0   12 May 20:26   G1TPA   Very strong, tnx for the QSO
NSS   5330.5   12 May 20:07   W1OP   usb
PA3AGH   5357.0   12 May 19:03   G4WCP  
YL2NX   5358.0   12 May 18:58   G4WCP  
DL1RMY   5357.0   12 May 18:56   G4WCP  
DK5VQ   5357.0   12 May 18:55   G4WCP  
DK5VK   5358.0   12 May 18:54   G4WCP  
OK1MP   5357.0   12 May 18:52   G4WCP  
NSS   5330.5   12 May 18:52   KD4D  
DK1XAM   5358.0   12 May 18:51   G4WCP  
A65DR   5357.0   12 May 18:12   SP5ENA   FT8
NSS   5332.0   12 May 18:07   KD4D  
C8T   5352.0   12 May 17:16   C91LY   up 1
NIIW   5371.5   12 May 17:12   W6RDF   Armed Forces Day SIMPLEX LSB
NSS   5332.0   12 May 16:50   KD4D   CW
NSS   5330.5   12 May 16:27   KD4D   armed forces day
NSS   5330.5   12 May 15:51   W1OP  
NSS   5330.5   12 May 15:47   KD4D   armed forces day special event
W6HDG   5313.0   12 May 15:44   W2ZDP   FM04UX<ES>DM13
HB0/PH0NO/P   5359.0   12 May 15:42   PD0RLH   WWFF HBFF-0123
HB0/PH0NO/P   5358.0   12 May 15:27   OK1MP   SSB
HB0/PH0NO/P   5359.0   12 May 14:48   PD0RLH   WWFF HBFF-0123 (USB)
SP9YFF/6   5354.0   12 May 11:38   SP2GUC   spff 1273 pga wr07 cq
SP9YFF/6   5354.0   12 May 11:36   SP9WAN   spff-1273
SP9YFF/6   5354.0   12 May 07:39   SP2GUC   spff 0930 pga wr07 cq
SP9YFF/6   5354.0   12 May 07:37   SO9DXX   spff-0930 cq 60m
EA5FX   5362.0   12 May 05:10   OK1VK   CQ CQ 559 in OK
C8T   5355.0   12 May 02:46   DK7DU   hw abt cw?
C8T   5357.0   12 May 01:09   K6EID   r-19
CU2DX   5357.1   12 May 01:06   W1UU  
EU1WW   5357.1   12 May 01:00   W1UU  
T77C   5357.0   12 May 00:58   EA3GHJ   CQ FT8
SP6IHE   5357.1   12 May 00:50   W1UU  
C8T   5360.0   12 May 00:00   SP5GH   cq qsx 1 up
C8T   5360.0   11 May 23:37   EA1PO   pls ssb and cw 60mtr
C8T   5360.0   11 May 23:33   C8T  
HB9CVQ   5353.0   11 May 22:36   HB9CVQ   band open for eu
OM3EY   5357.0   11 May 22:29   UA4CC   Win-Test wrong freq, LOG OK
4O7CC   5357.0   11 May 22:23   OM3EY   log not 40m !!!!! log 60m
4O7CC   5355.0   11 May 22:01   UA4CC   CQ
K8JD   5332.0   11 May 21:46   VE3EEI   CW Rocks!
C8T   5357.0   11 May 21:30   OZ4EDR  
C8T   5357.3   11 May 21:29   OZ4EDR   poor ... go home guys
C8T   5357.0   11 May 21:24   C91CCV   FT8 Dxped Fox mode
DK2BJ   5357.0   11 May 21:08   DL4MFF   tnx FT8
DM/65MVP   5357.0   11 May 20:55   DL4MFF   tnx FT8
STANAG   5362.0   11 May 20:48   PA0O   9+60 qrm frm OZ?
DF6PW   5357.0   11 May 20:43   C8T   reg dich ab..
C8T   5357.0   11 May 20:42   DF6PW   Entire EU calling ... no RX :(
C8T   5357.0   11 May 20:40   DF6PW   whole EU calling ... no RX :(
C8T   5357.0   11 May 20:39   OZ6GH   No receiver? or very deaf.
C8T   5357.0   11 May 20:31   DF6PW   Any RX? Whats ur problem?
C8T   5357.0   11 May 20:24   DL5MEV   dxped Mode or normal Mode?
EU1WW   5357.0   11 May 20:06   DC5SWL   TNX:FT8 QSO
G6TEL   5357.0   11 May 20:03   DC5SWL   TNX:FT8 QSO
C8T   5357.0   11 May 18:53   C91ABG   FT8 DXPED MODE AS FOX
SO1CC   5352.0   11 May 13:43   DL5CL   eu132
OT4V/P   5354.0   11 May 12:21   OO2T   ONFF-0724
OT4V/P   5354.0   11 May 12:18   ON3EVO   Onff-724 wca-1425
DL1ASA/P   5352.0   11 May 12:12   DL4FO   DLFF-0100
SO1CC   5352.0   11 May 08:29   SO1RE   EU-132 Wolf
EA7   5357.0   11 May 05:00   EA7TV   cq cq
EA5FX   5362.0   11 May 04:56   EA5KK   cq dx zl
C8T   5357.0   11 May 02:09   I2WOT   FT8
CP6CL   5357.0   11 May 02:01   DC5SWL   TNX:FT8 QSO
C8T   5360.0   11 May 01:11   PU2KNM   SWL
C8T   5360.0   11 May 01:10   C91CCV   CW CQ +1
WB9EAO   5403.5   11 May 00:07   N1DID   IN Allen
DC6KI   5357.0   10 May 23:21   EA5MT   IM88WV<>JO30 FT8